Time;durP1;ratioP1;P1;durP2;ratioP2;P2;SDS_P1;SDS_P2;PMS_P1;PMS_P2;Temp;Humidity;BMP_temperature;BMP_pressure;BME280_temperature;BME280_humidity;BME280_pressure;Samples;Min_cycle;Max_cycle;Signal;HPM_P1;HPM_P2
2022/09/02 00:00:45;;;;;;;3.45;1.92;;;14.00;99.90;;;;;;5045761;28;20049;-48
2022/09/02 00:03:16;;;;;;;3.28;2.05;;;14.00;99.90;;;;;;5047500;28;20045;-51
2022/09/02 00:05:42;;;;;;;4.03;1.83;;;14.00;99.90;;;;;;5045070;28;20051;-50
2022/09/02 00:08:09;;;;;;;4.63;2.25;;;14.00;99.90;;;;;;5043605;28;20041;-50
2022/09/02 00:10:38;;;;;;;4.10;2.50;;;14.10;99.90;;;;;;5025943;28;20285;-46
2022/09/02 00:13:05;;;;;;;4.47;1.88;;;14.10;99.90;;;;;;5043872;28;20179;-48
2022/09/02 00:15:32;;;;;;;2.60;2.05;;;14.10;99.90;;;;;;5042115;28;20497;-48
2022/09/02 00:17:59;;;;;;;2.35;1.52;;;14.10;99.90;;;;;;5043018;28;20094;-48
2022/09/02 00:20:27;;;;;;;2.65;1.60;;;14.10;99.90;;;;;;5044275;28;20099;-47
2022/09/02 00:22:52;;;;;;;3.90;1.75;;;14.20;99.90;;;;;;5043013;28;20061;-49
2022/09/02 00:25:18;;;;;;;2.80;1.52;;;14.20;99.90;;;;;;5043142;28;20541;-49
2022/09/02 00:27:44;;;;;;;2.90;1.88;;;14.10;99.90;;;;;;5041852;28;20088;-47
2022/09/02 00:30:11;;;;;;;3.90;1.80;;;14.10;99.90;;;;;;5043499;28;20053;-46
2022/09/02 00:32:37;;;;;;;2.42;1.98;;;14.10;99.90;;;;;;5025532;28;20056;-46
2022/09/02 00:35:03;;;;;;;4.28;2.10;;;14.10;99.90;;;;;;5043509;28;20569;-48
2022/09/02 00:37:29;;;;;;;2.15;1.70;;;14.00;99.90;;;;;;5043043;28;20557;-48
2022/09/02 00:39:55;;;;;;;6.72;2.10;;;14.00;99.90;;;;;;5043686;28;20136;-46
2022/09/02 00:42:21;;;;;;;3.35;1.98;;;14.00;99.90;;;;;;5041481;28;20044;-47
2022/09/02 00:44:48;;;;;;;3.50;2.03;;;13.90;99.90;;;;;;5042449;28;20095;-48
2022/09/02 00:47:14;;;;;;;4.38;2.03;;;13.90;99.90;;;;;;5042073;28;20053;-48
2022/09/02 00:49:47;;;;;;;2.67;1.88;;;13.90;99.90;;;;;;5043168;28;20348;-48
2022/09/02 00:52:29;;;;;;;2.55;1.83;;;13.90;99.90;;;;;;5043743;28;20048;-47
2022/09/02 00:54:58;;;;;;;2.50;1.70;;;13.80;99.90;;;;;;5042683;28;20044;-47
2022/09/02 00:57:31;;;;;;;2.30;1.80;;;13.80;99.90;;;;;;5043271;28;20053;-47
2022/09/02 01:00:12;;;;;;;5.57;2.13;;;13.80;99.90;;;;;;5043340;28;20110;-47
2022/09/02 01:02:40;;;;;;;2.83;1.77;;;13.80;99.90;;;;;;5025673;28;20055;-49
2022/09/02 01:05:09;;;;;;;2.58;2.00;;;13.70;99.90;;;;;;5042486;28;20453;-46
2022/09/02 01:07:37;;;;;;;3.92;1.70;;;13.60;99.90;;;;;;5041653;28;20309;-47
2022/09/02 01:10:16;;;;;;;3.15;1.83;;;13.60;99.90;;;;;;5043149;28;20044;-48
2022/09/02 01:12:42;;;;;;;5.38;1.77;;;13.60;99.90;;;;;;5026617;28;20060;-46
2022/09/02 01:15:10;;;;;;;3.28;1.73;;;13.60;99.90;;;;;;5043575;28;20056;-47
2022/09/02 01:17:39;;;;;;;2.53;2.00;;;13.50;99.90;;;;;;5043588;28;20045;-48
2022/09/02 01:20:10;;;;;;;4.60;1.98;;;13.50;99.90;;;;;;5046301;28;20052;-48
2022/09/02 01:22:38;;;;;;;4.82;1.80;;;13.50;99.90;;;;;;5043628;28;20057;-48
2022/09/02 01:25:07;;;;;;;3.15;2.00;;;13.50;99.90;;;;;;5042173;28;20045;-51
2022/09/02 01:27:33;;;;;;;3.53;2.08;;;13.40;99.90;;;;;;5041656;28;20048;-49
2022/09/02 01:30:00;;;;;;;2.95;1.83;;;13.40;99.90;;;;;;5043214;28;20049;-47
2022/09/02 01:32:28;;;;;;;3.53;1.88;;;13.40;99.90;;;;;;5042781;28;20045;-49
2022/09/02 01:34:54;;;;;;;3.03;2.08;;;13.30;99.90;;;;;;5024387;28;20526;-50
2022/09/02 01:37:20;;;;;;;3.40;1.85;;;13.30;99.90;;;;;;5041158;28;20057;-48
2022/09/02 01:39:47;;;;;;;3.53;2.00;;;13.30;99.90;;;;;;5041755;28;20122;-49
2022/09/02 01:42:13;;;;;;;2.90;1.92;;;13.30;99.90;;;;;;5042869;28;20055;-45
2022/09/02 01:44:42;;;;;;;2.00;1.55;;;13.30;99.90;;;;;;5041731;28;20045;-45
2022/09/02 01:47:17;;;;;;;2.97;1.80;;;13.30;99.90;;;;;;5041569;28;20080;-47
2022/09/02 01:49:43;;;;;;;2.38;1.92;;;13.20;99.90;;;;;;5041319;28;20234;-47
2022/09/02 01:52:09;;;;;;;2.88;1.70;;;13.20;99.90;;;;;;5039538;28;20049;-47
2022/09/02 01:54:35;;;;;;;4.22;1.98;;;13.20;99.90;;;;;;5041769;28;20048;-47
2022/09/02 01:57:00;;;;;;;3.33;1.85;;;13.20;99.90;;;;;;5041421;28;20551;-46
2022/09/02 01:59:26;;;;;;;3.50;1.88;;;13.10;99.90;;;;;;5041915;28;20084;-47
2022/09/02 02:01:52;;;;;;;4.55;2.10;;;13.10;99.90;;;;;;5041968;28;20076;-45
2022/09/02 02:04:18;;;;;;;2.35;1.80;;;13.10;99.90;;;;;;5041663;28;20060;-46
2022/09/02 02:06:47;;;;;;;6.15;2.10;;;13.10;99.90;;;;;;5041444;28;20420;-48
2022/09/02 02:09:15;;;;;;;2.45;1.90;;;13.00;99.90;;;;;;5040706;28;20044;-47
2022/09/02 02:11:41;;;;;;;2.83;1.73;;;13.00;99.90;;;;;;5042167;28;20191;-48
2022/09/02 02:14:07;;;;;;;2.58;1.95;;;13.00;99.90;;;;;;5042643;28;20447;-49
2022/09/02 02:16:32;;;;;;;3.15;1.77;;;13.00;99.90;;;;;;5041913;28;20143;-47
2022/09/02 02:18:58;;;;;;;6.18;1.88;;;13.00;99.90;;;;;;5030902;28;20052;-49
2022/09/02 02:21:24;;;;;;;3.63;2.13;;;13.00;99.90;;;;;;5040186;28;20045;-46
2022/09/02 02:23:50;;;;;;;3.45;2.42;;;12.90;99.90;;;;;;5041521;28;20066;-48
2022/09/02 02:26:17;;;;;;;4.15;2.15;;;12.90;99.90;;;;;;5037543;28;20408;-46
2022/09/02 02:28:43;;;;;;;2.53;1.58;;;12.80;99.90;;;;;;5041597;28;20052;-47
2022/09/02 02:31:09;;;;;;;4.72;2.08;;;12.90;99.90;;;;;;5042056;28;20239;-46
2022/09/02 02:33:35;;;;;;;3.42;1.75;;;12.80;99.90;;;;;;5043285;28;20041;-46
2022/09/02 02:36:03;;;;;;;7.95;2.20;;;12.80;99.90;;;;;;5045833;28;20558;-52
2022/09/02 02:38:30;;;;;;;2.35;1.75;;;12.80;99.90;;;;;;5042355;28;20057;-49
2022/09/02 02:40:56;;;;;;;2.83;1.98;;;12.70;99.90;;;;;;5040911;28;20124;-49
2022/09/02 02:43:25;;;;;;;4.25;2.80;;;12.70;99.90;;;;;;5040956;28;20381;-49
2022/09/02 02:45:51;;;;;;;3.13;1.98;;;12.70;99.90;;;;;;5042332;28;20094;-48
2022/09/02 02:48:17;;;;;;;2.15;1.92;;;12.70;99.90;;;;;;5041120;28;20399;-47
2022/09/02 02:50:43;;;;;;;5.57;2.78;;;12.60;99.90;;;;;;5041841;28;20060;-50
2022/09/02 02:53:11;;;;;;;3.47;2.17;;;12.60;99.90;;;;;;5041591;28;20049;-46
2022/09/02 02:55:37;;;;;;;3.70;2.10;;;12.60;99.90;;;;;;5042119;28;20052;-46
2022/09/02 02:58:03;;;;;;;3.65;1.70;;;12.60;99.90;;;;;;5040773;28;20448;-47
2022/09/02 03:00:31;;;;;;;4.00;1.90;;;12.60;99.90;;;;;;5040261;28;20057;-47
2022/09/02 03:03:02;;;;;;;6.03;2.03;;;12.60;99.90;;;;;;5040065;28;20187;-46
2022/09/02 03:05:29;;;;;;;3.67;2.08;;;12.60;99.90;;;;;;5042626;28;20052;-49
2022/09/02 03:07:58;;;;;;;3.67;2.00;;;12.60;99.90;;;;;;5044447;28;20089;-48
2022/09/02 03:10:26;;;;;;;3.20;1.67;;;12.50;99.90;;;;;;5044939;28;20051;-47
2022/09/02 03:12:53;;;;;;;5.28;1.80;;;12.60;99.90;;;;;;5044631;28;20049;-46
2022/09/02 03:15:19;;;;;;;3.50;1.90;;;12.60;99.90;;;;;;5025123;28;20067;-45
2022/09/02 03:17:47;;;;;;;3.17;1.63;;;12.50;99.90;;;;;;5044334;28;20657;-46
2022/09/02 03:20:14;;;;;;;3.38;1.90;;;12.50;99.90;;;;;;5043718;28;20053;-47
2022/09/02 03:22:42;;;;;;;3.83;1.88;;;12.50;99.90;;;;;;5044186;28;20503;-47
2022/09/02 03:25:11;;;;;;;2.42;1.70;;;12.50;99.90;;;;;;5025564;28;20381;-45
2022/09/02 03:27:38;;;;;;;3.72;2.30;;;12.50;99.90;;;;;;5044707;28;20110;-46
2022/09/02 03:30:07;;;;;;;3.03;2.10;;;12.50;99.90;;;;;;5044986;28;20060;-46
2022/09/02 03:32:33;;;;;;;2.70;1.77;;;12.50;99.90;;;;;;5044620;28;20127;-49
2022/09/02 03:35:04;;;;;;;2.33;2.00;;;12.50;99.90;;;;;;5044373;28;20266;-46
2022/09/02 03:37:29;;;;;;;2.30;1.85;;;12.40;99.90;;;;;;5044533;28;20420;-46
2022/09/02 03:39:55;;;;;;;4.53;2.00;;;12.40;99.90;;;;;;5044203;28;20383;-47
2022/09/02 03:42:20;;;;;;;2.80;1.92;;;12.40;99.90;;;;;;5044729;28;20429;-49
2022/09/02 03:44:46;;;;;;;3.55;2.03;;;12.40;99.90;;;;;;5044316;28;20052;-46
2022/09/02 03:47:13;;;;;;;3.95;1.95;;;12.40;99.90;;;;;;5044958;28;20049;-48
2022/09/02 03:49:39;;;;;;;4.28;2.05;;;12.40;99.90;;;;;;5046278;28;20049;-46
2022/09/02 03:52:06;;;;;;;6.43;2.10;;;12.30;99.90;;;;;;5046211;28;20060;-46
2022/09/02 03:54:31;;;;;;;3.13;2.00;;;12.30;99.90;;;;;;5045410;28;20055;-47
2022/09/02 03:56:57;;;;;;;4.28;1.67;;;12.30;99.90;;;;;;5043394;28;20456;-47
2022/09/02 03:59:23;;;;;;;3.47;2.20;;;12.30;99.90;;;;;;5041139;28;20503;-45
2022/09/02 04:01:50;;;;;;;4.15;2.17;;;12.30;99.90;;;;;;5044442;28;20053;-46
2022/09/02 04:04:18;;;;;;;5.45;2.20;;;12.30;99.90;;;;;;5044239;28;20794;-47
2022/09/02 04:06:49;;;;;;;4.28;2.20;;;12.30;99.90;;;;;;5044255;28;20053;-46
2022/09/02 04:09:15;;;;;;;5.93;2.22;;;12.30;99.90;;;;;;5044860;28;20060;-49
2022/09/02 04:11:41;;;;;;;5.35;2.17;;;12.30;99.90;;;;;;5045241;28;20049;-47
2022/09/02 04:14:08;;;;;;;2.67;2.15;;;12.30;99.90;;;;;;5044739;28;20052;-47
2022/09/02 04:16:34;;;;;;;2.15;1.95;;;12.20;99.90;;;;;;5042900;28;20047;-47
2022/09/02 04:19:01;;;;;;;2.60;2.00;;;12.20;99.90;;;;;;5042681;28;20056;-48
2022/09/02 04:21:28;;;;;;;4.03;2.38;;;12.20;99.90;;;;;;5043799;28;20041;-48
2022/09/02 04:23:55;;;;;;;2.88;2.40;;;12.20;99.90;;;;;;5043838;28;20044;-45
2022/09/02 04:26:21;;;;;;;3.55;2.17;;;12.20;99.90;;;;;;5043475;28;20055;-45
2022/09/02 04:28:48;;;;;;;3.83;1.92;;;12.20;99.90;;;;;;5042638;28;20045;-46
2022/09/02 04:31:17;;;;;;;6.18;2.30;;;12.20;99.90;;;;;;5025265;28;20065;-45
2022/09/02 04:33:43;;;;;;;4.32;2.40;;;12.20;99.90;;;;;;5043926;28;20049;-47
2022/09/02 04:36:16;;;;;;;2.47;2.20;;;12.10;99.90;;;;;;5042411;28;20041;-45
2022/09/02 04:38:41;;;;;;;5.63;3.28;;;12.10;99.90;;;;;;5042024;28;20085;-48
2022/09/02 04:41:17;;;;;;;4.40;2.40;;;12.10;99.90;;;;;;5044053;28;20120;-46
2022/09/02 04:43:43;;;;;;;4.90;2.20;;;12.10;99.90;;;;;;5043825;28;20052;-46
2022/09/02 04:46:16;;;;;;;2.97;2.30;;;12.10;99.90;;;;;;5043423;28;20492;-45
2022/09/02 04:48:44;;;;;;;2.10;1.75;;;12.10;99.90;;;;;;5040742;28;20094;-47
2022/09/02 04:51:13;;;;;;;4.28;2.20;;;12.10;99.90;;;;;;5043595;28;20524;-45
2022/09/02 04:53:39;;;;;;;2.47;1.73;;;12.10;99.90;;;;;;5043002;28;20045;-45
2022/09/02 04:56:07;;;;;;;4.00;2.22;;;12.10;99.90;;;;;;5042387;28;20119;-46
2022/09/02 04:58:34;;;;;;;5.35;2.75;;;12.10;99.90;;;;;;5023539;28;20048;-46
2022/09/02 05:01:09;;;;;;;4.38;2.08;;;12.10;99.90;;;;;;5043721;28;20048;-46
2022/09/02 05:03:35;;;;;;;3.17;2.00;;;12.00;99.90;;;;;;5044126;28;20048;-45
2022/09/02 05:06:04;;;;;;;3.58;2.08;;;12.10;99.90;;;;;;5045711;28;20079;-48
2022/09/02 05:08:30;;;;;;;4.60;1.92;;;12.10;99.90;;;;;;5043230;28;20755;-48
2022/09/02 05:10:56;;;;;;;3.85;2.22;;;12.10;99.90;;;;;;5043294;28;20130;-46
2022/09/02 05:13:22;;;;;;;3.85;2.20;;;12.10;99.90;;;;;;5042289;28;20761;-45
2022/09/02 05:15:48;;;;;;;4.03;2.30;;;12.10;99.90;;;;;;5041271;28;20049;-45
2022/09/02 05:18:19;;;;;;;5.18;3.40;;;12.20;99.90;;;;;;5042017;28;20055;-45
2022/09/02 05:20:45;;;;;;;5.47;3.00;;;12.20;99.90;;;;;;5043581;28;20288;-46
2022/09/02 05:23:12;;;;;;;5.45;3.10;;;12.20;99.90;;;;;;5023960;28;20419;-45
2022/09/02 05:25:38;;;;;;;5.55;3.20;;;12.30;99.90;;;;;;5037840;28;20041;-46
2022/09/02 05:28:07;;;;;;;6.22;3.53;;;12.40;99.90;;;;;;5041541;28;20052;-45
2022/09/02 05:30:39;;;;;;;6.38;3.45;;;12.70;99.90;;;;;;5042081;28;20183;-47
2022/09/02 05:33:05;;;;;;;4.13;2.97;;;12.90;99.90;;;;;;5021091;28;20156;-44
2022/09/02 05:35:31;;;;;;;3.05;2.58;;;13.10;99.90;;;;;;5037411;28;20041;-44
2022/09/02 05:37:57;;;;;;;4.75;3.10;;;13.40;99.90;;;;;;5041498;28;20551;-45
2022/09/02 05:40:23;;;;;;;7.07;2.55;;;14.20;99.90;;;;;;5042500;28;20048;-45
2022/09/02 05:42:49;;;;;;;7.47;2.33;;;15.30;99.90;;;;;;5042503;28;20399;-46
2022/09/02 05:45:15;;;;;;;5.00;2.63;;;16.40;99.90;;;;;;5041502;28;20059;-45
2022/09/02 05:47:41;;;;;;;5.70;2.55;;;17.40;99.90;;;;;;5022584;28;20053;-48
2022/09/02 05:50:07;;;;;;;3.13;2.30;;;18.20;99.90;;;;;;5041324;28;20049;-46
2022/09/02 05:52:32;;;;;;;6.03;2.55;;;18.80;99.10;;;;;;5041254;28;20543;-46
2022/09/02 05:54:59;;;;;;;4.40;2.35;;;19.70;98.50;;;;;;5040719;28;20476;-46
2022/09/02 05:57:25;;;;;;;2.10;1.75;;;20.20;97.20;;;;;;5040808;28;20060;-46
2022/09/02 05:59:55;;;;;;;2.75;2.10;;;20.70;96.00;;;;;;5041447;28;20049;-47
2022/09/02 06:02:22;;;;;;;3.60;2.05;;;21.20;95.40;;;;;;5042155;28;20063;-48
2022/09/02 06:04:52;;;;;;;4.47;1.98;;;21.60;94.30;;;;;;5023517;28;20045;-48
2022/09/02 06:07:21;;;;;;;2.67;1.80;;;21.90;93.70;;;;;;5040332;28;20053;-46
2022/09/02 06:09:48;;;;;;;4.47;2.15;;;22.00;92.90;;;;;;5041036;28;20102;-47
2022/09/02 06:12:19;;;;;;;5.68;1.85;;;22.40;92.90;;;;;;5040661;28;20119;-48
2022/09/02 06:14:46;;;;;;;4.80;2.08;;;22.90;92.20;;;;;;5041411;28;20501;-48
2022/09/02 06:17:12;;;;;;;4.22;2.13;;;23.20;91.70;;;;;;5041381;28;20041;-51
2022/09/02 06:19:38;;;;;;;5.85;1.90;;;23.40;91.40;;;;;;5044339;28;20049;-49
2022/09/02 06:22:04;;;;;;;3.67;2.20;;;23.50;90.70;;;;;;5042303;28;20395;-48
2022/09/02 06:24:30;;;;;;;3.88;1.88;;;23.30;90.90;;;;;;5042579;28;20126;-50
2022/09/02 06:26:57;;;;;;;2.30;1.73;;;23.40;91.00;;;;;;5040971;28;20048;-47
2022/09/02 06:29:24;;;;;;;5.75;2.10;;;23.40;90.60;;;;;;5040606;28;20048;-47
2022/09/02 06:31:52;;;;;;;6.72;2.30;;;23.90;90.60;;;;;;5040254;28;20057;-47
2022/09/02 06:34:20;;;;;;;2.55;2.00;;;23.60;90.10;;;;;;5040900;28;20041;-47
2022/09/02 06:36:47;;;;;;;3.53;1.83;;;24.10;90.40;;;;;;5040611;28;20051;-46
2022/09/02 06:39:18;;;;;;;6.03;1.90;;;24.50;89.70;;;;;;5039922;28;20052;-50
2022/09/02 06:41:48;;;;;;;2.03;1.73;;;24.60;88.70;;;;;;5041164;28;20570;-50
2022/09/02 06:44:15;;;;;;;3.03;2.13;;;24.70;89.40;;;;;;5041971;28;20041;-48
2022/09/02 06:46:46;;;;;;;8.02;2.20;;;24.70;88.40;;;;;;5040960;28;20045;-47
2022/09/02 06:49:12;;;;;;;3.15;2.05;;;24.60;87.70;;;;;;5022636;28;20049;-47
2022/09/02 06:51:44;;;;;;;3.60;1.98;;;24.90;87.70;;;;;;5039975;28;20045;-48
2022/09/02 06:54:14;;;;;;;3.72;1.73;;;25.00;87.00;;;;;;5040381;28;20613;-47
2022/09/02 06:56:40;;;;;;;4.75;1.90;;;25.20;87.50;;;;;;5041436;28;20052;-48
2022/09/02 06:59:07;;;;;;;3.47;1.95;;;25.20;86.00;;;;;;5041037;28;20048;-48
2022/09/02 07:01:36;;;;;;;2.88;1.90;;;25.20;85.80;;;;;;5040986;28;20049;-50
2022/09/02 07:06:50;;;;;;;3.38;2.10;;;25.30;85.80;;;;;;5022524;28;20141;-47
2022/09/02 07:09:19;;;;;;;4.15;1.80;;;25.30;85.40;;;;;;5040181;28;20053;-48
2022/09/02 07:11:46;;;;;;;2.53;1.85;;;24.80;85.80;;;;;;5037538;28;20053;-47
2022/09/02 07:14:19;;;;;;;4.63;2.28;;;24.00;87.20;;;;;;5040631;28;20048;-48
2022/09/02 07:16:49;;;;;;;7.43;2.05;;;23.40;88.70;;;;;;5040858;28;20053;-47
2022/09/02 07:19:15;;;;;;;4.55;2.35;;;22.70;89.60;;;;;;5040545;28;20413;-47
2022/09/02 07:21:41;;;;;;;4.50;1.90;;;22.20;90.20;;;;;;5040303;28;20041;-47
2022/09/02 07:24:08;;;;;;;6.53;2.55;;;21.90;90.50;;;;;;5040285;28;20041;-47
2022/09/02 07:26:34;;;;;;;4.35;2.00;;;21.70;91.00;;;;;;5039580;28;20098;-48
2022/09/02 07:29:00;;;;;;;3.92;1.95;;;21.60;91.20;;;;;;5039570;28;20053;-47
2022/09/02 07:31:28;;;;;;;2.53;1.88;;;21.40;91.30;;;;;;5040255;28;20052;-47
2022/09/02 07:33:57;;;;;;;5.70;2.03;;;21.20;91.40;;;;;;5040555;28;20057;-47
2022/09/02 07:36:24;;;;;;;2.80;1.92;;;21.00;91.80;;;;;;5041334;28;20990;-50
2022/09/02 07:38:52;;;;;;;3.67;1.90;;;21.10;92.10;;;;;;5044602;28;20131;-49
2022/09/02 07:41:18;;;;;;;4.13;1.80;;;21.10;92.10;;;;;;5041261;28;20045;-48
2022/09/02 07:43:44;;;;;;;4.32;1.80;;;20.90;91.90;;;;;;5040543;28;20191;-49
2022/09/02 07:46:10;;;;;;;4.13;2.03;;;20.90;92.40;;;;;;5040927;28;20136;-48
2022/09/02 07:48:36;;;;;;;4.40;2.25;;;20.80;92.10;;;;;;5038924;28;20049;-47
2022/09/02 07:51:03;;;;;;;4.25;1.90;;;20.70;92.00;;;;;;5039640;28;20056;-47
2022/09/02 07:53:30;;;;;;;2.42;1.63;;;20.70;92.10;;;;;;5043524;28;20507;-49
2022/09/02 07:55:56;;;;;;;3.33;1.75;;;20.70;92.40;;;;;;5043935;28;20476;-47
2022/09/02 07:58:22;;;;;;;4.38;2.33;;;20.70;92.20;;;;;;5044076;28;20147;-49
2022/09/02 08:00:50;;;;;;;3.63;2.10;;;20.70;92.30;;;;;;5030195;28;20158;-47
2022/09/02 08:03:15;;;;;;;4.68;1.90;;;20.70;92.10;;;;;;5041495;28;20052;-48
2022/09/02 08:05:43;;;;;;;3.95;2.13;;;20.70;92.10;;;;;;5042998;28;20041;-47
2022/09/02 08:08:09;;;;;;;4.65;2.17;;;20.70;92.30;;;;;;5042586;28;20088;-48
2022/09/02 08:10:36;;;;;;;4.28;1.98;;;20.70;92.10;;;;;;5043411;28;20491;-48
2022/09/02 08:13:04;;;;;;;4.53;1.98;;;20.70;92.20;;;;;;5043900;28;20067;-50
2022/09/02 08:15:30;;;;;;;3.05;2.20;;;20.90;92.60;;;;;;5024871;28;20061;-47
2022/09/02 08:17:57;;;;;;;4.05;1.98;;;21.00;92.50;;;;;;5041504;28;20511;-49
2022/09/02 08:20:23;;;;;;;6.10;1.83;;;21.10;92.50;;;;;;5039671;28;20048;-49
2022/09/02 08:22:48;;;;;;;4.03;1.70;;;21.10;92.30;;;;;;5043560;28;20056;-48
2022/09/02 08:25:17;;;;;;;2.13;1.50;;;21.20;92.10;;;;;;5043222;28;20506;-50
2022/09/02 08:27:43;;;;;;;5.72;1.88;;;21.20;91.90;;;;;;5041745;28;20381;-49
2022/09/02 08:30:09;;;;;;;3.88;2.00;;;21.30;92.00;;;;;;5044020;28;20068;-48
2022/09/02 08:32:36;;;;;;;3.03;1.90;;;21.40;92.10;;;;;;5043349;28;20049;-47
2022/09/02 08:35:03;;;;;;;5.15;1.80;;;21.40;91.90;;;;;;5042565;28;20049;-49
2022/09/02 08:37:30;;;;;;;4.90;1.73;;;21.40;92.20;;;;;;5042094;28;20049;-48
2022/09/02 08:39:56;;;;;;;4.03;1.95;;;21.50;91.90;;;;;;5043241;28;20049;-49
2022/09/02 08:42:43;;;;;;;4.35;1.83;;;21.60;91.70;;;;;;5043195;28;20455;-49
2022/09/02 08:45:31;;;;;;;2.13;1.58;;;21.70;91.50;;;;;;5024303;28;20107;-48
2022/09/02 08:48:19;;;;;;;4.35;1.65;;;21.80;91.40;;;;;;5040415;28;20249;-50
2022/09/02 08:50:46;;;;;;;3.95;2.20;;;21.80;91.10;;;;;;5043490;28;20127;-48
2022/09/02 08:53:29;;;;;;;2.58;1.50;;;21.70;91.10;;;;;;5042765;28;20053;-49
2022/09/02 08:55:57;;;;;;;;;;;21.80;91.20;;;;;;5043155;28;20559;-50
2022/09/02 08:58:27;;;;;;;3.25;1.85;;;21.90;91.50;;;;;;5041874;28;19968;-48
2022/09/02 09:01:03;;;;;;;3.10;1.50;;;22.00;91.40;;;;;;5043069;28;20133;-49
2022/09/02 09:04:08;;;;;;;5.45;1.50;;;22.00;91.00;;;;;;5041584;28;20057;-50
2022/09/02 09:06:53;;;;;;;5.78;1.85;;;22.00;90.20;;;;;;4963251;28;20141;-52
2022/09/02 09:09:58;;;;;;;4.78;1.42;;;22.00;90.40;;;;;;4961129;28;20053;-51
2022/09/02 09:12:45;;;;;;;3.90;1.33;;;21.90;90.30;;;;;;4958248;28;20695;-49
2022/09/02 09:15:27;;;;;;;1.98;1.33;;;22.00;90.40;;;;;;4959927;28;20051;-49
2022/09/02 09:18:03;;;;;;;2.67;1.55;;;22.10;90.50;;;;;;4958552;28;20457;-49
2022/09/02 09:20:32;;;;;;;4.40;1.67;;;22.30;90.80;;;;;;4957481;28;20624;-51
2022/09/02 09:23:04;;;;;;;4.55;2.42;;;22.30;90.30;;;;;;4959424;28;20137;-49
2022/09/02 09:25:30;;;;;;;8.40;1.48;;;22.30;90.30;;;;;;4959364;28;20051;-49
2022/09/02 09:27:59;;;;;;;5.97;1.65;;;22.30;90.30;;;;;;4943130;28;20129;-50
2022/09/02 09:30:26;;;;;;;2.67;1.02;;;22.20;90.20;;;;;;4960714;28;20699;-48
2022/09/02 09:32:54;;;;;;;9.48;1.80;;;22.30;90.40;;;;;;4959662;28;20090;-50
2022/09/02 09:35:20;;;;;;;5.60;1.92;;;22.40;90.50;;;;;;4960146;28;20051;-49
2022/09/02 09:37:51;;;;;;;4.55;1.58;;;22.50;90.40;;;;;;4957464;28;20055;-49
2022/09/02 09:40:19;;;;;;;6.93;1.67;;;22.60;90.10;;;;;;4959315;28;20663;-50
2022/09/02 09:42:46;;;;;;;3.83;1.20;;;22.60;89.50;;;;;;4978774;28;20065;-50
2022/09/02 09:45:18;;;;;;;4.20;1.67;;;22.70;89.60;;;;;;5040236;28;20053;-48
2022/09/02 09:47:45;;;;;;;1.90;1.40;;;22.80;89.40;;;;;;5021323;28;20512;-50
2022/09/02 09:50:15;;;;;;;3.00;1.30;;;23.00;89.50;;;;;;5040496;28;20053;-53
2022/09/02 09:52:41;;;;;;;7.07;1.38;;;23.00;89.40;;;;;;5040395;28;20060;-52
2022/09/02 09:55:17;;;;;;;3.60;1.40;;;23.20;88.60;;;;;;5038233;28;20072;-49
2022/09/02 09:57:46;;;;;;;1.85;1.27;;;23.30;87.80;;;;;;5037895;28;20076;-49
2022/09/02 10:00:31;;;;;;;2.53;1.38;;;23.30;87.50;;;;;;5041045;28;20458;-53
2022/09/02 10:03:00;;;;;;;2.45;1.30;;;23.40;87.40;;;;;;5039357;28;20051;-51
2022/09/02 10:05:25;;;;;;;4.18;1.23;;;23.40;87.00;;;;;;5038701;28;20541;-49
2022/09/02 10:08:04;;;;;;;2.92;1.27;;;23.50;87.30;;;;;;5040423;28;20395;-53
2022/09/02 10:10:32;;;;;;;3.35;1.05;;;23.60;86.80;;;;;;5034400;28;20048;-50
2022/09/02 10:13:15;;;;;;;3.45;1.30;;;23.70;85.90;;;;;;5041401;28;20179;-50
2022/09/02 10:16:33;;;;;;;5.75;1.50;;;23.60;85.40;;;;;;5040912;28;20072;-52
2022/09/02 10:19:40;;;;;;;2.60;1.20;;;23.60;86.00;;;;;;4902597;29;20067;-53
2022/09/02 10:22:40;;;;;;;5.50;1.45;;;23.60;85.10;;;;;;4827952;29;20069;-50
2022/09/02 10:25:24;;;;;;;3.08;1.27;;;23.60;84.80;;;;;;4827488;29;20277;-49
2022/09/02 10:28:02;;;;;;;3.10;1.00;;;23.70;85.00;;;;;;4827906;29;20068;-48
2022/09/02 10:30:34;;;;;;;3.88;1.27;;;23.80;84.70;;;;;;4828050;29;20069;-52
2022/09/02 10:33:28;;;;;;;3.13;1.10;;;23.90;84.80;;;;;;4828290;29;20069;-51
2022/09/02 10:36:05;;;;;;;2.10;1.13;;;23.70;83.90;;;;;;4813241;29;20597;-55
2022/09/02 10:39:03;;;;;;;2.63;1.20;;;23.70;83.50;;;;;;4812130;29;20101;-52
2022/09/02 10:41:41;;;;;;;5.45;1.67;;;23.60;83.10;;;;;;4828951;29;20053;-51
2022/09/02 10:45:06;;;;;;;2.88;1.27;;;23.70;83.60;;;;;;4828239;29;20066;-52
2022/09/02 10:48:16;;;;;;;4.45;1.10;;;23.90;83.00;;;;;;4723873;30;20052;-51
2022/09/02 10:50:41;;;;;;;2.65;1.20;;;23.90;82.50;;;;;;4723852;30;20052;-52
2022/09/02 10:53:26;;;;;;;3.85;1.35;;;24.00;81.60;;;;;;4723887;30;20524;-53
2022/09/02 10:56:00;;;;;;;3.17;1.13;;;24.00;80.80;;;;;;4801101;29;20040;-52
2022/09/02 10:59:02;;;;;;;3.70;1.30;;;24.10;81.50;;;;;;4885691;29;20059;-53
2022/09/02 11:01:32;;;;;;;3.60;1.40;;;24.10;82.30;;;;;;4900909;29;20052;-53
2022/09/02 11:04:02;;;;;;;2.05;1.00;;;24.10;81.00;;;;;;4871488;29;20071;-54
2022/09/02 11:06:32;;;;;;;2.72;1.38;;;24.20;82.50;;;;;;4897723;29;20039;-54
2022/09/02 11:09:09;;;;;;;4.65;1.48;;;24.20;81.40;;;;;;4904051;29;20480;-54
2022/09/02 11:11:41;;;;;;;2.60;1.13;;;24.30;81.00;;;;;;4904671;29;20146;-55
2022/09/02 11:14:29;;;;;;;5.82;1.40;;;24.20;81.10;;;;;;4903369;29;20095;-52
2022/09/02 11:17:19;;;;;;;4.13;1.30;;;24.30;80.60;;;;;;4903007;29;20060;-54
2022/09/02 11:20:33;;;;;;;3.53;1.30;;;24.30;79.70;;;;;;4903362;29;20056;-54
2022/09/02 11:23:07;;;;;;;2.50;1.45;;;24.20;79.60;;;;;;4852051;29;20067;-54
2022/09/02 11:25:51;;;;;;;3.13;1.48;;;24.20;79.60;;;;;;4921358;29;20332;-53
2022/09/02 11:29:03;;;;;;;2.78;1.40;;;24.10;79.60;;;;;;4927602;29;20553;-54
2022/09/02 11:31:42;;;;;;;2.95;1.20;;;24.20;80.10;;;;;;4888809;29;20147;-55
2022/09/02 11:34:51;;;;;;;4.57;1.40;;;24.30;79.20;;;;;;4889204;29;20092;-54
2022/09/02 11:37:49;;;;;;;3.90;1.20;;;24.30;80.00;;;;;;4926163;29;20487;-53
2022/09/02 11:40:27;;;;;;;6.38;1.65;;;24.30;79.70;;;;;;4931096;29;20527;-53
2022/09/02 11:43:18;;;;;;;3.63;1.40;;;24.40;79.70;;;;;;4898245;29;20071;-54
2022/09/02 11:45:57;;;;;;;4.90;1.40;;;24.40;79.90;;;;;;4924888;29;20881;-55
2022/09/02 11:48:44;;;;;;;2.95;1.38;;;24.50;81.90;;;;;;4925171;29;20063;-54
2022/09/02 11:51:45;;;;;;;2.03;1.33;;;24.60;80.00;;;;;;4922838;29;20083;-55
2022/09/02 11:54:15;;;;;;;2.08;1.23;;;24.70;80.10;;;;;;4923138;29;20059;-53
2022/09/02 11:56:46;;;;;;;2.83;1.20;;;24.60;79.70;;;;;;4921127;29;20067;-53
2022/09/02 11:59:22;;;;;;;4.47;1.30;;;24.70;79.80;;;;;;4907004;29;20087;-53
2022/09/02 12:01:54;;;;;;;1.73;1.10;;;24.80;79.20;;;;;;4923367;29;20063;-56
2022/09/02 12:04:25;;;;;;;3.50;1.58;;;24.70;78.60;;;;;;4922952;28;20062;-54
2022/09/02 12:07:22;;;;;;;5.05;1.30;;;24.80;79.50;;;;;;4979862;28;20050;-55
2022/09/02 12:09:50;;;;;;;2.55;1.30;;;24.80;79.30;;;;;;5024472;28;20129;-54
2022/09/02 12:12:38;;;;;;;3.85;1.17;;;24.80;79.10;;;;;;5027025;28;20092;-55
2022/09/02 12:15:04;;;;;;;4.82;1.40;;;24.80;79.20;;;;;;5027411;28;20049;-56
2022/09/02 12:17:42;;;;;;;2.70;1.25;;;24.80;79.80;;;;;;5024539;28;20382;-54
2022/09/02 12:20:37;;;;;;;11.32;3.20;;;24.80;80.40;;;;;;5026110;28;20116;-54
2022/09/02 12:23:05;;;;;;;2.65;1.30;;;24.90;78.90;;;;;;5025877;28;20416;-53
2022/09/02 12:25:36;;;;;;;4.22;1.50;;;24.90;78.70;;;;;;5023826;28;20060;-54
2022/09/02 12:28:09;;;;;;;3.40;1.42;;;24.90;78.30;;;;;;5025216;28;20053;-54
2022/09/02 12:31:09;;;;;;;4.40;1.30;;;24.80;77.40;;;;;;5014811;28;20053;-54
2022/09/02 12:33:43;;;;;;;3.60;1.20;;;24.80;78.00;;;;;;5014087;28;20054;-56
2022/09/02 12:36:35;;;;;;;2.10;1.10;;;24.80;78.20;;;;;;5014533;28;20045;-55
2022/09/02 12:39:29;;;;;;;4.68;1.55;;;24.80;78.00;;;;;;5021052;28;20053;-55
2022/09/02 12:42:10;;;;;;;3.40;1.38;;;24.80;79.00;;;;;;5018925;28;20582;-54
2022/09/02 12:44:54;;;;;;;5.53;1.83;;;24.90;77.90;;;;;;5019770;28;20053;-55
2022/09/02 12:47:39;;;;;;;4.35;1.30;;;25.00;79.00;;;;;;5021019;28;20549;-55
2022/09/02 12:50:26;;;;;;;6.93;1.70;;;25.10;79.80;;;;;;5021576;28;20048;-55
2022/09/02 12:53:16;;;;;;;3.38;1.27;;;25.30;78.90;;;;;;5042414;28;20056;-56
2022/09/02 12:55:56;;;;;;;2.30;1.50;;;25.40;78.50;;;;;;5045306;28;20488;-54
2022/09/02 12:58:23;;;;;;;3.38;1.63;;;25.40;78.20;;;;;;5046268;28;20135;-55
2022/09/02 13:01:08;;;;;;;3.25;1.40;;;25.40;78.40;;;;;;5046253;28;20045;-54
2022/09/02 13:03:41;;;;;;;4.07;1.40;;;25.40;77.60;;;;;;5028443;28;20056;-55
2022/09/02 13:06:33;;;;;;;6.35;1.40;;;25.40;77.80;;;;;;5027335;28;20489;-55
2022/09/02 13:09:40;;;;;;;1.70;1.27;;;25.30;77.10;;;;;;5045737;28;20052;-52
2022/09/02 13:12:34;;;;;;;2.13;1.40;;;25.40;77.90;;;;;;5036072;28;20066;-54
2022/09/02 13:15:11;;;;;;;3.72;1.50;;;25.30;78.40;;;;;;5044558;28;20488;-53